Time;durP1;ratioP1;P1;durP2;ratioP2;P2;SDS_P1;SDS_P2;PMS_P1;PMS_P2;Temp;Humidity;BMP_temperature;BMP_pressure;BME280_temperature;BME280_humidity;BME280_pressure;Samples;Min_cycle;Max_cycle;Signal;HPM_P1;HPM_P2
2023/11/11 00:00:28;;;;;;;33.47;23.10;;;;;21.80;98731.00;;;;2076011;28;20226;-56
2023/11/11 00:01:30;;;;;;;31.42;24.00;;;;;21.70;98732.00;;;;2065743;28;20226;-54
2023/11/11 00:02:32;;;;;;;28.00;21.00;;;;;21.70;98727.00;;;;2082366;28;20243;-52
2023/11/11 00:03:34;;;;;;;30.90;22.17;;;;;21.70;98721.00;;;;2062814;28;20247;-52
2023/11/11 00:04:35;;;;;;;27.92;21.42;;;;;21.70;98735.00;;;;2083089;28;20220;-57
2023/11/11 00:05:36;;;;;;;29.17;21.17;;;;;21.80;98730.00;;;;2082713;28;20224;-56
2023/11/11 00:06:37;;;;;;;27.40;19.73;;;;;21.70;98728.00;;;;2084989;28;20221;-57
2023/11/11 00:07:38;;;;;;;31.67;22.17;;;;;21.70;98729.00;;;;2087666;28;20212;-56
2023/11/11 00:08:41;;;;;;;29.57;21.40;;;;;21.70;98726.00;;;;2085148;28;20934;-53
2023/11/11 00:09:42;;;;;;;29.48;20.95;;;;;21.70;98731.00;;;;2088237;28;20822;-54
2023/11/11 00:10:43;;;;;;;26.95;19.52;;;;;21.60;98734.00;;;;2081696;28;20213;-52
2023/11/11 00:11:44;;;;;;;26.37;20.13;;;;;21.70;98726.00;;;;2086496;28;20591;-56
2023/11/11 00:12:45;;;;;;;26.02;19.70;;;;;21.70;98731.00;;;;2078071;28;20460;-55
2023/11/11 00:13:46;;;;;;;25.40;18.70;;;;;21.70;98727.00;;;;2082401;28;20602;-53
2023/11/11 00:14:48;;;;;;;24.90;18.50;;;;;21.60;98737.00;;;;2093728;28;20224;-54
2023/11/11 00:15:48;;;;;;;24.88;18.02;;;;;21.60;98732.00;;;;2082701;28;20221;-54
2023/11/11 00:16:48;;;;;;;26.90;18.70;;;;;21.60;98738.00;;;;2088318;28;20224;-56
2023/11/11 00:17:49;;;;;;;24.87;17.67;;;;;21.60;98734.00;;;;2078773;28;20256;-55
2023/11/11 00:18:50;;;;;;;22.10;17.80;;;;;21.60;98727.00;;;;2093881;28;20208;-56
2023/11/11 00:19:50;;;;;;;24.60;16.70;;;;;21.60;98726.00;;;;2086597;28;20224;-52
2023/11/11 00:20:51;;;;;;;23.10;16.67;;;;;21.60;98735.00;;;;2085330;28;20220;-56
2023/11/11 00:21:54;;;;;;;23.03;16.53;;;;;21.60;98733.00;;;;2087650;28;20213;-55
2023/11/11 00:22:55;;;;;;;20.05;16.25;;;;;21.60;98729.00;;;;2079991;28;20216;-56
2023/11/11 00:23:58;;;;;;;22.20;16.00;;;;;21.60;98732.00;;;;2093167;28;20220;-55
2023/11/11 00:25:00;;;;;;;22.15;15.20;;;;;21.60;98727.00;;;;2093737;28;20695;-53
2023/11/11 00:26:00;;;;;;;21.15;15.57;;;;;21.70;98731.00;;;;2085004;28;20224;-54
2023/11/11 00:27:01;;;;;;;16.47;13.27;;;;;21.60;98738.00;;;;2079919;28;20288;-54
2023/11/11 00:28:03;;;;;;;20.80;15.07;;;;;21.60;98742.00;;;;2072343;28;20220;-56
2023/11/11 00:29:04;;;;;;;18.98;14.00;;;;;21.60;98747.00;;;;2080915;28;20209;-56
2023/11/11 00:30:05;;;;;;;20.13;13.93;;;;;21.60;98751.00;;;;2088167;28;20295;-53
2023/11/11 00:31:06;;;;;;;17.30;14.50;;;;;21.60;98748.00;;;;2088187;28;20563;-54
2023/11/11 00:32:07;;;;;;;20.43;14.13;;;;;21.60;98748.00;;;;2087026;28;20714;-55
2023/11/11 00:33:08;;;;;;;16.15;12.60;;;;;21.50;98750.00;;;;2074331;28;20643;-53
2023/11/11 00:34:09;;;;;;;19.63;13.02;;;;;21.60;98745.00;;;;2088282;28;21002;-56
2023/11/11 00:35:11;;;;;;;18.42;13.38;;;;;21.50;98715.00;;;;2087178;28;20212;-57
2023/11/11 00:36:12;;;;;;;15.90;11.93;;;;;21.50;98746.00;;;;2086320;28;20220;-55
2023/11/11 00:37:12;;;;;;;16.40;11.97;;;;;21.60;98749.00;;;;2085407;28;20220;-56
2023/11/11 00:38:13;;;;;;;17.33;11.77;;;;;21.60;98749.00;;;;2076153;28;20227;-55
2023/11/11 00:39:16;;;;;;;16.87;12.47;;;;;21.60;98755.00;;;;2082819;28;20206;-54
2023/11/11 00:40:16;;;;;;;20.38;12.50;;;;;21.50;98751.00;;;;2080759;28;20945;-56
2023/11/11 00:41:18;;;;;;;18.70;12.43;;;;;21.10;98751.00;;;;2087276;28;20301;-55
2023/11/11 00:42:21;;;;;;;15.75;12.35;;;;;21.50;98757.00;;;;2082420;28;20212;-53
2023/11/11 00:43:22;;;;;;;14.52;10.93;;;;;21.50;98752.00;;;;2076626;28;20228;-56
2023/11/11 00:44:22;;;;;;;14.57;10.80;;;;;21.50;98764.00;;;;2081768;28;20590;-56
2023/11/11 00:45:22;;;;;;;17.40;11.33;;;;;21.50;98758.00;;;;2080535;28;20220;-55
2023/11/11 00:46:23;;;;;;;12.87;10.20;;;;;21.50;98764.00;;;;2083073;28;20241;-55
2023/11/11 00:47:23;;;;;;;16.17;11.10;;;;;21.50;98761.00;;;;2079454;28;20229;-56
2023/11/11 00:48:24;;;;;;;14.83;10.27;;;;;21.50;98772.00;;;;2077042;28;20218;-58
2023/11/11 00:49:24;;;;;;;14.20;10.25;;;;;21.50;98767.00;;;;2086331;28;20267;-55
2023/11/11 00:50:25;;;;;;;13.57;9.97;;;;;21.50;98771.00;;;;2078616;28;20221;-56
2023/11/11 00:51:26;;;;;;;12.37;9.60;;;;;21.50;98770.00;;;;2081579;28;20232;-57
2023/11/11 00:52:26;;;;;;;12.03;9.40;;;;;21.50;98773.00;;;;2084884;28;20319;-54
2023/11/11 00:53:29;;;;;;;13.55;10.18;;;;;21.50;98775.00;;;;2083416;28;20220;-57
2023/11/11 00:54:30;;;;;;;11.10;8.40;;;;;21.50;98773.00;;;;2076321;28;20220;-53
2023/11/11 00:55:30;;;;;;;12.73;9.07;;;;;21.50;98776.00;;;;2078497;28;20229;-56
2023/11/11 00:56:31;;;;;;;12.97;8.70;;;;;21.50;98777.00;;;;2087812;28;20661;-56
2023/11/11 00:57:32;;;;;;;11.20;8.37;;;;;21.50;98777.00;;;;2085588;28;20310;-55
2023/11/11 00:58:34;;;;;;;12.27;8.23;;;;;21.50;98796.00;;;;2080141;28;20221;-56
2023/11/11 00:59:41;;;;;;;11.65;8.15;;;;;21.40;98782.00;;;;2086063;28;20224;-55
2023/11/11 01:00:43;;;;;;;11.23;8.98;;;;;21.40;98783.00;;;;2075505;28;20222;-54
2023/11/11 01:01:46;;;;;;;9.65;7.07;;;;;21.50;98787.00;;;;2071358;28;20297;-56
2023/11/11 01:02:49;;;;;;;10.63;7.75;;;;;21.50;98793.00;;;;2055655;28;20218;-55
2023/11/11 01:03:50;;;;;;;9.80;7.78;;;;;21.50;98791.00;;;;2069813;28;20298;-54
2023/11/11 01:04:50;;;;;;;9.40;7.37;;;;;21.50;98811.00;;;;2079614;28;20221;-55
2023/11/11 01:05:51;;;;;;;10.83;7.10;;;;;21.50;98791.00;;;;2082553;28;20468;-54
2023/11/11 01:06:51;;;;;;;10.90;8.37;;;;;21.40;98794.00;;;;2084419;28;20232;-55
2023/11/11 01:07:52;;;;;;;9.33;6.97;;;;;21.40;98785.00;;;;2074855;28;20209;-57
2023/11/11 01:08:52;;;;;;;11.43;7.70;;;;;21.40;98580.00;;;;2086081;28;20221;-55
2023/11/11 01:09:55;;;;;;;9.77;6.83;;;;;21.40;98793.00;;;;2086523;28;20248;-54
2023/11/11 01:10:57;;;;;;;10.15;7.40;;;;;21.40;98792.00;;;;2078293;28;20226;-53
2023/11/11 01:11:58;;;;;;;9.00;6.43;;;;;21.40;98683.00;;;;2076769;28;20591;-53
2023/11/11 01:13:04;;;;;;;9.52;6.90;;;;;21.40;98791.00;;;;2070370;28;20472;-52
2023/11/11 01:14:07;;;;;;;8.60;6.25;;;;;21.40;98794.00;;;;2081897;28;20248;-54
2023/11/11 01:15:11;;;;;;;8.03;6.00;;;;;21.40;98791.00;;;;2086424;28;20213;-52
2023/11/11 01:16:13;;;;;;;10.38;7.00;;;;;21.40;98821.00;;;;2083903;28;20852;-55
2023/11/11 01:17:14;;;;;;;9.50;6.65;;;;;21.40;98796.00;;;;2085097;28;20678;-55
2023/11/11 01:18:14;;;;;;;8.17;6.57;;;;;21.40;98801.00;;;;2069290;28;20499;-55
2023/11/11 01:19:15;;;;;;;9.00;6.30;;;;;21.40;98803.00;;;;2076573;28;20210;-53
2023/11/11 01:20:15;;;;;;;7.47;6.43;;;;;21.40;98801.00;;;;2083658;28;20606;-53
2023/11/11 01:21:16;;;;;;;8.20;6.07;;;;;21.40;98796.00;;;;2084444;28;20209;-54
2023/11/11 01:22:18;;;;;;;8.43;6.20;;;;;21.40;98797.00;;;;2084728;28;20232;-55
2023/11/11 01:23:22;;;;;;;8.10;5.97;;;;;21.40;98797.00;;;;2076023;28;20317;-54
2023/11/11 01:24:24;;;;;;;8.07;5.95;;;;;21.40;98799.00;;;;2081415;28;20212;-56
2023/11/11 01:25:25;;;;;;;8.20;5.38;;;;;21.40;98792.00;;;;2079606;28;20252;-54
2023/11/11 01:26:25;;;;;;;7.30;5.37;;;;;21.40;98799.00;;;;2085793;28;20213;-54
2023/11/11 01:27:26;;;;;;;8.77;5.77;;;;;21.40;98800.00;;;;2084321;28;20221;-54
2023/11/11 01:28:27;;;;;;;7.93;5.88;;;;;21.30;98796.00;;;;2078959;28;20226;-54
2023/11/11 01:29:30;;;;;;;9.37;6.20;;;;;21.30;98807.00;;;;2093533;28;20208;-54
2023/11/11 01:30:31;;;;;;;8.30;6.10;;;;;21.40;98795.00;;;;2071749;28;20221;-54
2023/11/11 01:31:32;;;;;;;8.20;5.30;;;;;21.30;98801.00;;;;2077040;28;20252;-54
2023/11/11 01:32:33;;;;;;;7.70;5.90;;;;;21.40;98799.00;;;;2076728;28;20224;-54
2023/11/11 01:33:33;;;;;;;7.47;5.27;;;;;21.30;98801.00;;;;2071017;28;20278;-54
2023/11/11 01:34:34;;;;;;;7.30;5.43;;;;;21.30;98806.00;;;;2085466;28;20465;-53
2023/11/11 01:35:36;;;;;;;7.47;5.53;;;;;21.30;98808.00;;;;2075859;28;20225;-54
2023/11/11 01:36:36;;;;;;;8.10;6.60;;;;;21.40;98814.00;;;;2075661;28;20761;-53
2023/11/11 01:37:38;;;;;;;9.10;6.80;;;;;21.30;98818.00;;;;2079541;28;20217;-54
2023/11/11 01:38:40;;;;;;;7.00;5.03;;;;;21.40;98805.00;;;;2073994;28;20220;-54
2023/11/11 01:39:41;;;;;;;7.22;5.93;;;;;21.30;98811.00;;;;2079108;28;20228;-54
2023/11/11 01:40:41;;;;;;;6.70;5.67;;;;;21.30;98815.00;;;;2084982;28;20311;-54
2023/11/11 01:41:42;;;;;;;6.77;5.30;;;;;21.30;98808.00;;;;2086322;28;20267;-53
2023/11/11 01:42:42;;;;;;;7.70;6.10;;;;;20.60;98817.00;;;;2079632;28;20295;-54
2023/11/11 01:43:48;;;;;;;9.00;6.37;;;;;21.30;98807.00;;;;2076404;28;20217;-54
2023/11/11 01:44:50;;;;;;;6.25;5.38;;;;;21.30;98821.00;;;;2083504;28;20217;-53
2023/11/11 01:45:52;;;;;;;6.40;5.13;;;;;21.30;98811.00;;;;2081656;28;20308;-53
2023/11/11 01:46:52;;;;;;;8.40;5.32;;;;;21.30;98819.00;;;;2085399;28;20638;-52
2023/11/11 01:47:53;;;;;;;6.87;5.43;;;;;21.30;98818.00;;;;2073454;28;20220;-55
2023/11/11 01:48:55;;;;;;;7.47;5.60;;;;;21.20;98819.00;;;;2078010;28;20232;-53
2023/11/11 01:49:56;;;;;;;6.68;5.53;;;;;21.30;98818.00;;;;2083319;28;20224;-53
2023/11/11 01:50:56;;;;;;;7.83;5.90;;;;;21.20;98819.00;;;;2086113;28;20213;-53
2023/11/11 01:51:59;;;;;;;8.53;6.07;;;;;21.30;98826.00;;;;2081025;28;20223;-55
2023/11/11 01:53:00;;;;;;;6.78;5.28;;;;;21.30;98819.00;;;;2059606;28;20651;-54
2023/11/11 01:54:00;;;;;;;8.63;6.40;;;;;21.30;98819.00;;;;2077422;28;20233;-52
2023/11/11 01:55:01;;;;;;;6.10;5.33;;;;;21.20;98824.00;;;;2069141;28;20234;-53
2023/11/11 01:56:03;;;;;;;6.57;5.30;;;;;21.30;98826.00;;;;2068888;28;20240;-54
2023/11/11 01:57:04;;;;;;;5.60;5.00;;;;;21.30;98831.00;;;;2083276;28;20221;-54
2023/11/11 01:58:04;;;;;;;8.30;6.60;;;;;21.20;98833.00;;;;2075134;28;20615;-54
2023/11/11 01:59:05;;;;;;;7.03;5.67;;;;;21.30;98817.00;;;;2085891;28;20216;-53
2023/11/11 02:00:12;;;;;;;7.93;6.17;;;;;21.30;98829.00;;;;2076305;28;20221;-54
2023/11/11 02:01:12;;;;;;;6.60;5.55;;;;;21.30;98833.00;;;;2071997;28;20224;-54
2023/11/11 02:02:13;;;;;;;6.67;5.30;;;;;21.30;98838.00;;;;2084220;28;20532;-54
2023/11/11 02:03:13;;;;;;;7.37;5.40;;;;;21.30;98837.00;;;;2072660;28;20227;-54
2023/11/11 02:04:14;;;;;;;7.00;5.90;;;;;21.30;98840.00;;;;2084718;28;20208;-53
2023/11/11 02:05:16;;;;;;;6.90;6.20;;;;;21.30;98795.00;;;;2081625;28;20476;-54
2023/11/11 02:06:16;;;;;;;6.07;5.30;;;;;21.30;98836.00;;;;2084517;28;20215;-54
2023/11/11 02:07:17;;;;;;;6.87;5.77;;;;;21.30;98838.00;;;;2083556;28;20219;-54
2023/11/11 02:08:17;;;;;;;6.70;5.80;;;;;21.30;98838.00;;;;2075332;28;20331;-54
2023/11/11 02:09:18;;;;;;;6.33;5.63;;;;;21.20;98839.00;;;;2067349;28;20214;-54
2023/11/11 02:10:19;;;;;;;6.68;5.60;;;;;21.20;98833.00;;;;2068812;28;20218;-54
2023/11/11 02:11:19;;;;;;;7.10;5.90;;;;;21.30;98838.00;;;;2067108;28;20242;-54
2023/11/11 02:12:20;;;;;;;7.30;6.60;;;;;21.20;98838.00;;;;2068412;28;20218;-54
2023/11/11 02:13:21;;;;;;;7.10;6.13;;;;;21.20;98838.00;;;;2072383;28;20638;-54
2023/11/11 02:14:22;;;;;;;6.97;5.90;;;;;21.20;98844.00;;;;2084903;28;20255;-55
2023/11/11 02:15:23;;;;;;;7.13;5.80;;;;;21.20;98845.00;;;;2085450;28;20266;-54
2023/11/11 02:16:23;;;;;;;6.47;5.67;;;;;21.20;98836.00;;;;2084533;28;20201;-54
2023/11/11 02:17:24;;;;;;;7.30;6.13;;;;;21.20;98840.00;;;;2070677;28;20202;-53
2023/11/11 02:18:25;;;;;;;6.50;5.85;;;;;21.20;98847.00;;;;2060011;28;20222;-54
2023/11/11 02:19:27;;;;;;;7.13;5.53;;;;;21.10;98845.00;;;;2085709;28;20816;-54
2023/11/11 02:20:29;;;;;;;6.85;6.07;;;;;21.20;98847.00;;;;2085789;28;20213;-53
2023/11/11 02:21:31;;;;;;;6.90;6.20;;;;;21.20;98847.00;;;;2084210;28;20298;-53
2023/11/11 02:22:31;;;;;;;6.60;5.70;;;;;21.20;98854.00;;;;2085027;28;20209;-54
2023/11/11 02:23:35;;;;;;;8.70;6.53;;;;;21.10;98846.00;;;;2076477;28;20355;-56
2023/11/11 02:24:37;;;;;;;7.88;6.55;;;;;21.20;98853.00;;;;2086774;28;20316;-57
2023/11/11 02:25:38;;;;;;;7.13;5.72;;;;;21.20;98850.00;;;;2085615;28;20217;-55
2023/11/11 02:26:39;;;;;;;6.68;5.75;;;;;21.20;98863.00;;;;2085203;28;20217;-52
2023/11/11 02:27:39;;;;;;;6.97;5.63;;;;;21.20;98871.00;;;;2076430;28;20229;-53
2023/11/11 02:28:39;;;;;;;6.73;6.03;;;;;21.10;98859.00;;;;2075052;28;20775;-54
2023/11/11 02:29:44;;;;;;;7.33;5.77;;;;;21.10;98851.00;;;;2083946;28;20299;-54
2023/11/11 02:30:46;;;;;;;7.30;5.88;;;;;21.20;98854.00;;;;2084507;28;20212;-54
2023/11/11 02:31:46;;;;;;;6.00;4.90;;;;;21.20;98864.00;;;;2085828;28;20633;-53
2023/11/11 02:32:48;;;;;;;7.37;5.37;;;;;21.20;98871.00;;;;2072082;28;20245;-53
2023/11/11 02:33:48;;;;;;;7.97;5.80;;;;;21.20;98881.00;;;;2085877;28;20271;-54
2023/11/11 02:34:49;;;;;;;7.13;5.90;;;;;21.20;98859.00;;;;2085762;28;20635;-54
2023/11/11 02:35:50;;;;;;;7.50;6.30;;;;;21.20;98876.00;;;;2084813;28;20733;-53
2023/11/11 02:36:50;;;;;;;6.40;5.77;;;;;21.10;98861.00;;;;2084572;28;20478;-54
2023/11/11 02:37:50;;;;;;;7.40;5.70;;;;;21.20;98869.00;;;;2071598;28;20235;-53
2023/11/11 02:38:51;;;;;;;6.67;5.87;;;;;21.10;98861.00;;;;2085819;28;20278;-53
2023/11/11 02:39:52;;;;;;;5.97;5.00;;;;;21.10;98866.00;;;;2083911;28;20302;-54
2023/11/11 02:40:52;;;;;;;6.97;6.27;;;;;21.10;98865.00;;;;2082766;28;20683;-53
2023/11/11 02:41:52;;;;;;;7.00;5.97;;;;;21.10;98869.00;;;;2085173;28;20307;-53
2023/11/11 02:42:53;;;;;;;6.10;5.50;;;;;21.10;98865.00;;;;2074526;28;20213;-54
2023/11/11 02:43:53;;;;;;;6.30;5.53;;;;;21.10;98869.00;;;;2085788;28;20212;-54
2023/11/11 02:44:54;;;;;;;6.50;5.87;;;;;21.10;98871.00;;;;2084960;28;20979;-54
2023/11/11 02:45:54;;;;;;;6.40;5.57;;;;;21.10;98869.00;;;;2085126;28;20597;-53
2023/11/11 02:46:55;;;;;;;8.83;5.50;;;;;21.10;98864.00;;;;2084980;28;20215;-53
2023/11/11 02:47:55;;;;;;;7.40;5.73;;;;;21.10;98868.00;;;;2075242;28;20217;-53
2023/11/11 02:48:55;;;;;;;6.87;5.70;;;;;21.10;98868.00;;;;2085686;28;20699;-53
2023/11/11 02:49:55;;;;;;;7.13;5.27;;;;;21.10;98865.00;;;;2083212;28;20735;-53
2023/11/11 02:50:56;;;;;;;7.17;5.47;;;;;21.10;98880.00;;;;2085602;28;20697;-54
2023/11/11 02:51:56;;;;;;;6.80;5.27;;;;;21.10;98881.00;;;;2083935;28;21944;-54
2023/11/11 02:52:56;;;;;;;6.23;5.37;;;;;21.10;98869.00;;;;2075328;28;20225;-53
2023/11/11 02:53:57;;;;;;;7.37;5.37;;;;;21.10;98800.00;;;;2085086;28;20680;-54
2023/11/11 02:54:57;;;;;;;5.43;4.80;;;;;21.10;98877.00;;;;2085131;28;21103;-54
2023/11/11 02:55:58;;;;;;;5.73;4.73;;;;;21.10;98886.00;;;;2085519;28;20625;-54
2023/11/11 02:56:58;;;;;;;6.67;5.27;;;;;21.10;98878.00;;;;2083609;28;20270;-54
2023/11/11 02:57:59;;;;;;;10.10;6.07;;;;;21.10;98889.00;;;;2074805;28;20254;-56
2023/11/11 02:58:59;;;;;;;6.53;5.30;;;;;21.10;98886.00;;;;2082530;28;20216;-53
2023/11/11 03:00:01;;;;;;;6.10;5.50;;;;;21.10;98880.00;;;;2085196;28;20893;-53
2023/11/11 03:01:02;;;;;;;6.63;5.00;;;;;21.10;98886.00;;;;2083175;28;20217;-54
2023/11/11 03:02:04;;;;;;;5.50;4.90;;;;;21.00;98888.00;;;;2076166;28;20312;-53
2023/11/11 03:03:04;;;;;;;5.50;5.00;;;;;21.10;98882.00;;;;2067237;28;20551;-53
2023/11/11 03:04:05;;;;;;;5.87;5.27;;;;;21.00;98889.00;;;;2084480;28;20582;-55
2023/11/11 03:05:06;;;;;;;6.00;5.20;;;;;21.00;98888.00;;;;2085315;28;20216;-53
2023/11/11 03:06:06;;;;;;;5.13;4.63;;;;;21.10;98882.00;;;;2082635;28;20780;-53
2023/11/11 03:07:07;;;;;;;5.90;5.30;;;;;21.10;98892.00;;;;2084794;28;20467;-56
2023/11/11 03:08:07;;;;;;;6.27;5.00;;;;;21.10;98890.00;;;;2075481;28;20224;-55
2023/11/11 03:09:09;;;;;;;5.60;4.67;;;;;21.00;98887.00;;;;2083294;28;20236;-53
2023/11/11 03:10:11;;;;;;;5.55;4.85;;;;;21.10;98891.00;;;;2085486;28;20644;-53
2023/11/11 03:11:11;;;;;;;6.85;4.95;;;;;21.10;98886.00;;;;2083324;28;20221;-54
2023/11/11 03:12:12;;;;;;;5.37;4.87;;;;;21.00;98891.00;;;;2084429;28;20216;-53
2023/11/11 03:13:13;;;;;;;5.90;5.30;;;;;21.00;98891.00;;;;2071937;28;20221;-54
2023/11/11 03:14:14;;;;;;;5.40;4.88;;;;;21.00;98892.00;;;;2085029;28;20221;-54
2023/11/11 03:15:14;;;;;;;5.77;5.00;;;;;21.10;98893.00;;;;2084655;28;20221;-55
2023/11/11 03:16:15;;;;;;;6.73;4.97;;;;;21.00;98886.00;;;;2085179;28;20220;-53
2023/11/11 03:17:16;;;;;;;5.70;5.10;;;;;21.00;98891.00;;;;2084654;28;20290;-53
2023/11/11 03:18:16;;;;;;;5.45;4.88;;;;;21.00;98885.00;;;;2075046;28;20205;-54
2023/11/11 03:19:17;;;;;;;5.30;4.80;;;;;21.10;98886.00;;;;2081988;28;20213;-53
2023/11/11 03:20:17;;;;;;;4.93;4.33;;;;;21.00;98890.00;;;;2083586;28;20213;-54
2023/11/11 03:21:21;;;;;;;6.10;5.10;;;;;21.00;98892.00;;;;2085221;28;20310;-54
2023/11/11 03:22:21;;;;;;;5.38;4.88;;;;;21.00;98888.00;;;;2082922;28;20360;-53
2023/11/11 03:23:22;;;;;;;4.50;4.10;;;;;21.00;98902.00;;;;2073079;28;20216;-54
2023/11/11 03:24:22;;;;;;;5.50;4.70;;;;;21.00;98903.00;;;;2084930;28;20216;-54
2023/11/11 03:25:22;;;;;;;5.40;4.87;;;;;21.00;98903.00;;;;2083933;28;20251;-53
2023/11/11 03:26:23;;;;;;;4.93;4.40;;;;;21.00;98907.00;;;;2084307;28;20209;-54
2023/11/11 03:27:23;;;;;;;5.67;5.00;;;;;21.00;98916.00;;;;2082630;28;20240;-53
2023/11/11 03:28:23;;;;;;;5.10;4.60;;;;;21.00;98910.00;;;;2066543;28;20210;-54
2023/11/11 03:29:24;;;;;;;5.80;5.00;;;;;21.00;98918.00;;;;2085143;28;20236;-55
2023/11/11 03:30:24;;;;;;;5.77;5.13;;;;;21.00;98916.00;;;;2082661;28;20228;-53
2023/11/11 03:31:24;;;;;;;5.00;4.40;;;;;21.00;98918.00;;;;2078500;28;20224;-54
2023/11/11 03:32:25;;;;;;;5.20;4.43;;;;;21.00;98916.00;;;;2082352;28;20701;-55
2023/11/11 03:33:26;;;;;;;5.30;4.20;;;;;21.00;98918.00;;;;2072181;28;20732;-55
2023/11/11 03:34:26;;;;;;;5.30;4.80;;;;;21.00;98924.00;;;;2085608;28;20454;-55
2023/11/11 03:35:28;;;;;;;8.23;4.80;;;;;21.00;98924.00;;;;2082684;28;20209;-52
2023/11/11 03:36:28;;;;;;;5.03;4.15;;;;;21.00;98927.00;;;;2085586;28;20217;-52
2023/11/11 03:37:29;;;;;;;6.57;4.80;;;;;21.00;98924.00;;;;2083400;28;20300;-52
2023/11/11 03:38:29;;;;;;;6.70;4.50;;;;;20.90;98925.00;;;;2073120;28;20205;-55
2023/11/11 03:39:31;;;;;;;7.23;4.60;;;;;20.90;98923.00;;;;2084318;28;20235;-55
2023/11/11 03:40:31;;;;;;;4.82;4.32;;;;;20.90;98926.00;;;;2085013;28;20204;-53
2023/11/11 03:41:32;;;;;;;6.50;5.27;;;;;20.90;98921.00;;;;2085430;28;20212;-52
2023/11/11 03:42:32;;;;;;;6.63;4.83;;;;;20.90;98925.00;;;;2084200;28;20204;-56
2023/11/11 03:43:35;;;;;;;6.73;5.03;;;;;20.90;98930.00;;;;2076252;28;20296;-55
2023/11/11 03:44:36;;;;;;;7.43;5.25;;;;;20.90;98929.00;;;;2085141;28;20689;-55
2023/11/11 03:45:36;;;;;;;6.40;4.77;;;;;21.00;98925.00;;;;2085665;28;20298;-56
2023/11/11 03:46:36;;;;;;;5.47;4.70;;;;;20.90;98934.00;;;;2084990;28;20205;-56
2023/11/11 03:47:38;;;;;;;5.93;5.33;;;;;20.90;98934.00;;;;2085307;28;20677;-56
2023/11/11 03:48:39;;;;;;;6.10;5.47;;;;;20.90;98941.00;;;;2074914;28;20240;-54
2023/11/11 03:49:39;;;;;;;6.33;4.50;;;;;20.90;98949.00;;;;2080696;28;20225;-54
2023/11/11 03:50:40;;;;;;;5.00;4.47;;;;;20.90;98950.00;;;;2076907;28;26292;-54
2023/11/11 03:51:40;;;;;;;4.90;4.40;;;;;20.90;98957.00;;;;2077824;28;20605;-54
2023/11/11 03:52:41;;;;;;;5.03;4.53;;;;;20.90;98949.00;;;;2084791;28;20620;-54
2023/11/11 03:53:41;;;;;;;5.87;5.03;;;;;20.90;98956.00;;;;2071985;28;21023;-53
2023/11/11 03:54:41;;;;;;;4.93;4.43;;;;;20.90;98941.00;;;;2085339;28;20226;-54
2023/11/11 03:55:41;;;;;;;5.80;4.80;;;;;20.80;98952.00;;;;2085506;28;20266;-54
2023/11/11 03:56:43;;;;;;;7.47;4.93;;;;;20.80;98953.00;;;;2082288;28;20312;-54
2023/11/11 03:57:44;;;;;;;5.20;4.70;;;;;20.80;98954.00;;;;2072926;28;20212;-55
2023/11/11 03:58:44;;;;;;;7.07;5.47;;;;;20.90;98956.00;;;;2084554;28;20217;-54
2023/11/11 03:59:45;;;;;;;4.20;3.50;;;;;20.90;98961.00;;;;2085341;28;20217;-54
2023/11/11 04:00:45;;;;;;;5.10;4.60;;;;;20.90;98954.00;;;;2084739;28;20228;-53
2023/11/11 04:01:45;;;;;;;6.40;4.40;;;;;20.90;98954.00;;;;2083409;28;20296;-53
2023/11/11 04:02:46;;;;;;;6.17;4.70;;;;;20.90;98957.00;;;;2073979;28;20285;-54
2023/11/11 04:03:47;;;;;;;5.38;4.70;;;;;20.90;98958.00;;;;2084425;28;20274;-53
2023/11/11 04:04:47;;;;;;;5.27;4.77;;;;;20.90;98962.00;;;;2080945;28;20355;-54
2023/11/11 04:05:47;;;;;;;4.70;4.20;;;;;20.90;98955.00;;;;2078218;28;20267;-54
2023/11/11 04:06:48;;;;;;;4.37;3.90;;;;;20.90;98941.00;;;;2084985;28;20216;-54
2023/11/11 04:07:48;;;;;;;4.80;4.00;;;;;20.90;98952.00;;;;2074462;28;20311;-54
2023/11/11 04:08:49;;;;;;;5.13;4.63;;;;;20.90;98955.00;;;;2084461;28;20213;-53
2023/11/11 04:09:49;;;;;;;5.50;3.97;;;;;20.90;98959.00;;;;2085288;28;20225;-53
2023/11/11 04:10:50;;;;;;;4.40;4.00;;;;;20.90;98960.00;;;;2084519;28;20274;-54
2023/11/11 04:11:51;;;;;;;5.18;4.68;;;;;20.90;98987.00;;;;2085425;28;20245;-53
2023/11/11 04:12:52;;;;;;;6.20;4.33;;;;;20.90;98967.00;;;;2075135;28;20217;-54
2023/11/11 04:13:53;;;;;;;4.30;3.90;;;;;20.90;98967.00;;;;2080973;28;20517;-53
2023/11/11 04:14:54;;;;;;;6.72;4.20;;;;;20.90;98974.00;;;;2084858;28;20343;-54
2023/11/11 04:15:54;;;;;;;5.17;3.93;;;;;20.90;98971.00;;;;2084681;28;20763;-53
2023/11/11 04:16:54;;;;;;;4.80;3.60;;;;;20.80;98974.00;;;;2084639;28;20625;-54
2023/11/11 04:17:55;;;;;;;5.30;4.80;;;;;20.90;98984.00;;;;2072546;28;20216;-54
2023/11/11 04:18:56;;;;;;;7.70;4.87;;;;;20.90;98976.00;;;;2083946;28;20303;-54
2023/11/11 04:19:57;;;;;;;4.95;3.70;;;;;20.90;98975.00;;;;2084492;28;20216;-54
2023/11/11 04:20:58;;;;;;;5.00;4.50;;;;;20.80;98975.00;;;;2084270;28;20209;-54
2023/11/11 04:21:58;;;;;;;4.10;3.70;;;;;20.90;98989.00;;;;2084493;28;20209;-54
2023/11/11 04:22:59;;;;;;;6.30;4.17;;;;;20.90;98978.00;;;;2074802;28;20447;-54
2023/11/11 04:23:59;;;;;;;4.33;3.80;;;;;20.80;98988.00;;;;2085101;28;20220;-54
2023/11/11 04:24:59;;;;;;;9.57;3.93;;;;;20.80;98996.00;;;;2084197;28;20259;-54
2023/11/11 04:26:02;;;;;;;5.17;4.03;;;;;20.80;98991.00;;;;2082196;28;20689;-54
2023/11/11 04:27:03;;;;;;;4.82;3.83;;;;;20.90;98986.00;;;;2085175;28;20605;-54
2023/11/11 04:28:04;;;;;;;4.63;4.17;;;;;20.80;98990.00;;;;2076165;28;20229;-54
2023/11/11 04:29:04;;;;;;;5.10;4.20;;;;;20.80;98999.00;;;;2085688;28;20931;-54
2023/11/11 04:30:06;;;;;;;5.17;4.07;;;;;20.80;98990.00;;;;2085326;28;20217;-54
2023/11/11 04:31:07;;;;;;;4.95;3.80;;;;;20.80;98994.00;;;;2086784;28;20296;-54
2023/11/11 04:32:07;;;;;;;4.00;3.43;;;;;20.90;98997.00;;;;2084790;28;20222;-54
2023/11/11 04:33:09;;;;;;;5.50;4.20;;;;;20.90;98999.00;;;;2075918;28;20239;-54
2023/11/11 04:34:09;;;;;;;4.13;3.72;;;;;20.80;99004.00;;;;2085263;28;20463;-54
2023/11/11 04:35:09;;;;;;;4.27;3.73;;;;;20.90;99006.00;;;;2073691;28;20252;-54
2023/11/11 04:36:10;;;;;;;3.43;3.13;;;;;20.90;99007.00;;;;2083121;28;20208;-54
2023/11/11 04:37:10;;;;;;;4.07;3.33;;;;;20.80;99004.00;;;;2083366;28;20228;-54
2023/11/11 04:38:10;;;;;;;4.23;3.80;;;;;20.80;99006.00;;;;2069493;28;20300;-54
2023/11/11 04:39:11;;;;;;;5.60;4.20;;;;;20.80;99012.00;;;;2084685;28;20212;-54
2023/11/11 04:40:14;;;;;;;5.30;3.83;;;;;20.80;99008.00;;;;2086698;28;20236;-54
2023/11/11 04:41:16;;;;;;;4.22;3.72;;;;;20.80;99012.00;;;;2086204;28;20213;-54
2023/11/11 04:42:17;;;;;;;5.75;3.70;;;;;20.80;99016.00;;;;2085623;28;20213;-54
2023/11/11 04:43:18;;;;;;;5.47;3.42;;;;;20.80;99016.00;;;;2075180;28;20656;-54
2023/11/11 04:44:18;;;;;;;4.30;3.47;;;;;20.70;99023.00;;;;2085278;28;20312;-54
2023/11/11 04:45:19;;;;;;;5.20;3.60;;;;;20.80;99027.00;;;;2086794;28;20232;-54
2023/11/11 04:46:19;;;;;;;4.40;3.43;;;;;20.80;99027.00;;;;2077316;28;20268;-54
2023/11/11 04:47:20;;;;;;;3.80;3.10;;;;;20.80;99021.00;;;;2084258;28;20225;-54
2023/11/11 04:48:21;;;;;;;4.65;3.40;;;;;20.60;99024.00;;;;2075071;28;20653;-54
2023/11/11 04:49:22;;;;;;;3.43;3.03;;;;;20.80;99037.00;;;;2084872;28;20241;-54
2023/11/11 04:50:23;;;;;;;5.07;3.00;;;;;20.80;99024.00;;;;2086781;28;20567;-54
2023/11/11 04:51:24;;;;;;;4.77;3.33;;;;;20.80;99025.00;;;;2083445;28;20331;-54
2023/11/11 04:52:25;;;;;;;6.97;4.17;;;;;20.80;99035.00;;;;2075718;28;20225;-54
2023/11/11 04:53:26;;;;;;;4.40;2.90;;;;;20.70;99027.00;;;;2066955;28;20562;-54
2023/11/11 04:54:26;;;;;;;3.47;2.70;;;;;20.70;99033.00;;;;2077814;28;20267;-54
2023/11/11 04:55:27;;;;;;;4.27;3.07;;;;;20.70;99035.00;;;;2084287;28;20271;-54
2023/11/11 04:56:27;;;;;;;4.37;2.73;;;;;20.80;99032.00;;;;2085909;28;20573;-54
2023/11/11 04:57:27;;;;;;;3.40;3.00;;;;;20.90;99032.00;;;;2085529;28;20220;-54
2023/11/11 04:58:28;;;;;;;3.90;2.90;;;;;20.90;99033.00;;;;2076220;28;20232;-54
2023/11/11 04:59:29;;;;;;;3.33;2.67;;;;;21.00;99039.00;;;;2086162;28;20697;-56
2023/11/11 05:00:29;;;;;;;3.30;2.50;;;;;20.90;99051.00;;;;2084389;28;20212;-54
2023/11/11 05:01:30;;;;;;;5.00;3.30;;;;;20.90;99052.00;;;;2085897;28;20209;-55
2023/11/11 05:02:30;;;;;;;4.00;2.80;;;;;20.90;99053.00;;;;2085803;28;20220;-54
2023/11/11 05:03:31;;;;;;;3.30;2.60;;;;;20.90;99056.00;;;;2075947;28;20227;-55